PWSweather.com
Personal Weather Stations
Station Observations
PWSLORIS
The Farm At Fox Bay, Loris, SC 29569

The Farm At Fox BayLoris, SC 29569

Lat: 34.067097, Lon: -78.86907

Elevation: 108

Station Type: Davis Vantage Pro2 with 24 hr. FARS and solar

http://www.lorisweather.com

High Low Average
Temperature 79.4°F26.3°C 64.3°F17.9°C 68.7°F20.4°C
Dew Point 70.9°F21.6°C 63.1°F17.3°C 66.5°F19.2°C
Winds 9.0 mph 14.5 kmh Calm Calm 2.0 mph SSW3.2 kmh SSW
Wind Gusts 14.0 mph22.5 kmh -- 3.0 mph4.8 kmh
Humidity 98% 74% 93%
Pressure 29.93 in1013.5 mb 29.86 in1011.2 mb -
Precipitation 0.75 in19.1 mm - -
Hour Temp Dew Point Humidity Winds Wind Gusts Pressure Precip Precip Rate Daily Precip Total
12:00 AM 67.0°F19.4°C 66.1°F18.9°C 97% 0.1 mph SSW0.2 kmh SSW 1.0 mph1.6 kmh 29.92 in1013.2 mb 0.00 in0.0 mm 0.00 in/hr0.0 mm/hr 0.00 in0.0 mm
12:15 AM 66.7°F19.3°C 65.8°F18.8°C 97% Calm Calm -- 29.91 in1012.9 mb 0.00 in0.0 mm 0.00 in/hr0.0 mm/hr 0.00 in0.0 mm
12:30 AM 66.6°F19.2°C 65.7°F18.7°C 97% Calm Calm -- 29.90 in1012.5 mb 0.00 in0.0 mm 0.00 in/hr0.0 mm/hr 0.00 in0.0 mm
12:45 AM 66.4°F19.1°C 65.5°F18.6°C 97% 0.3 mph SSW0.5 kmh SSW 1.0 mph1.6 kmh 29.89 in1012.2 mb 0.00 in0.0 mm 0.00 in/hr0.0 mm/hr 0.00 in0.0 mm
01:00 AM 66.4°F19.1°C 65.5°F18.6°C 97% Calm Calm -- 29.89 in1012.2 mb 0.00 in0.0 mm 0.00 in/hr0.0 mm/hr 0.00 in0.0 mm
01:15 AM 66.3°F19.1°C 65.4°F18.6°C 97% Calm Calm -- 29.89 in1012.2 mb 0.00 in0.0 mm 0.00 in/hr0.0 mm/hr 0.00 in0.0 mm
01:30 AM 66.3°F19.1°C 65.4°F18.6°C 97% Calm Calm -- 29.89 in1012.2 mb 0.00 in0.0 mm 0.00 in/hr0.0 mm/hr 0.00 in0.0 mm
01:45 AM 66.2°F19.0°C 65.3°F18.5°C 97% Calm Calm -- 29.90 in1012.5 mb 0.00 in0.0 mm 0.00 in/hr0.0 mm/hr 0.00 in0.0 mm
02:00 AM 66.1°F18.9°C 65.2°F18.4°C 97% Calm Calm -- 29.90 in1012.5 mb 0.00 in0.0 mm 0.00 in/hr0.0 mm/hr 0.00 in0.0 mm
02:15 AM 66.1°F18.9°C 65.2°F18.4°C 97% Calm Calm -- 29.90 in1012.5 mb 0.00 in0.0 mm 0.00 in/hr0.0 mm/hr 0.00 in0.0 mm
02:30 AM 66.0°F18.9°C 65.1°F18.4°C 97% Calm Calm -- 29.89 in1012.2 mb 0.00 in0.0 mm 0.00 in/hr0.0 mm/hr 0.00 in0.0 mm
02:45 AM 65.9°F18.8°C 65.0°F18.3°C 97% Calm Calm -- 29.89 in1012.2 mb 0.00 in0.0 mm 0.00 in/hr0.0 mm/hr 0.00 in0.0 mm
03:00 AM 65.7°F18.7°C 64.9°F18.3°C 97% 0.6 mph SSW1.0 kmh SSW 1.0 mph1.6 kmh 29.89 in1012.2 mb 0.00 in0.0 mm 0.00 in/hr0.0 mm/hr 0.00 in0.0 mm
03:15 AM 65.7°F18.7°C 64.8°F18.2°C 97% Calm Calm -- 29.89 in1012.2 mb 0.00 in0.0 mm 0.00 in/hr0.0 mm/hr 0.00 in0.0 mm
03:30 AM 65.6°F18.7°C 64.7°F18.2°C 97% Calm Calm -- 29.88 in1011.9 mb 0.00 in0.0 mm 0.00 in/hr0.0 mm/hr 0.00 in0.0 mm
03:45 AM 65.6°F18.7°C 64.7°F18.2°C 97% Calm Calm -- 29.89 in1012.2 mb 0.00 in0.0 mm 0.00 in/hr0.0 mm/hr 0.00 in0.0 mm
04:00 AM 65.9°F18.8°C 65.3°F18.5°C 98% 4.0 mph S6.4 kmh S 7.0 mph11.3 kmh 29.90 in1012.5 mb 0.00 in0.0 mm 0.00 in/hr0.0 mm/hr 0.00 in0.0 mm
04:15 AM 66.3°F19.1°C 65.7°F18.7°C 98% 5.0 mph S8.0 kmh S 7.0 mph11.3 kmh 29.90 in1012.5 mb 0.00 in0.0 mm 0.00 in/hr0.0 mm/hr 0.00 in0.0 mm
04:30 AM 66.3°F19.1°C 65.7°F18.7°C 98% 2.7 mph S4.3 kmh S 3.0 mph4.8 kmh 29.90 in1012.5 mb 0.00 in0.0 mm 0.00 in/hr0.0 mm/hr 0.00 in0.0 mm
05:00 AM 65.8°F18.8°C 65.0°F18.3°C 97% 3.1 mph S5.0 kmh S 4.0 mph6.4 kmh 29.90 in1012.5 mb 0.00 in0.0 mm 0.00 in/hr0.0 mm/hr 0.00 in0.0 mm
05:15 AM 65.8°F18.8°C 64.9°F18.3°C 97% Calm Calm 1.0 mph1.6 kmh 29.91 in1012.9 mb 0.00 in0.0 mm 0.00 in/hr0.0 mm/hr 0.00 in0.0 mm
05:30 AM 65.6°F18.7°C 64.7°F18.2°C 97% 1.3 mph S2.1 kmh S 4.0 mph6.4 kmh 29.91 in1012.9 mb 0.00 in0.0 mm 0.00 in/hr0.0 mm/hr 0.00 in0.0 mm
05:45 AM 65.6°F18.7°C 64.7°F18.2°C 97% 0.1 mph E0.2 kmh E 1.0 mph1.6 kmh 29.91 in1012.9 mb 0.00 in0.0 mm 0.00 in/hr0.0 mm/hr 0.00 in0.0 mm
06:00 AM 65.5°F18.6°C 64.6°F18.1°C 97% 0.3 mph S0.5 kmh S -- 29.91 in1012.9 mb 0.00 in0.0 mm 0.00 in/hr0.0 mm/hr 0.00 in0.0 mm
06:15 AM 65.4°F18.6°C 64.5°F18.1°C 97% 0.4 mph S0.6 kmh S 2.0 mph3.2 kmh 29.90 in1012.5 mb 0.00 in0.0 mm 0.00 in/hr0.0 mm/hr 0.00 in0.0 mm
06:30 AM 65.6°F18.7°C 64.7°F18.2°C 97% Calm Calm -- 29.91 in1012.9 mb 0.00 in0.0 mm 0.00 in/hr0.0 mm/hr 0.00 in0.0 mm
06:45 AM 65.8°F18.8°C 64.9°F18.3°C 97% 1.0 mph WSW1.6 kmh WSW 3.0 mph4.8 kmh 29.92 in1013.2 mb 0.00 in0.0 mm 0.00 in/hr0.0 mm/hr 0.00 in0.0 mm
07:00 AM 66.1°F18.9°C 65.2°F18.4°C 97% 0.6 mph WSW1.0 kmh WSW 3.0 mph4.8 kmh 29.92 in1013.2 mb 0.00 in0.0 mm 0.00 in/hr0.0 mm/hr 0.00 in0.0 mm
07:15 AM 66.3°F19.1°C 65.4°F18.6°C 97% Calm Calm -- 29.92 in1013.2 mb 0.00 in0.0 mm 0.00 in/hr0.0 mm/hr 0.00 in0.0 mm
07:30 AM 66.7°F19.3°C 65.8°F18.8°C 97% 0.1 mph S0.2 kmh S 2.0 mph3.2 kmh 29.93 in1013.5 mb 0.00 in0.0 mm 0.00 in/hr0.0 mm/hr 0.00 in0.0 mm
07:45 AM 67.4°F19.7°C 66.5°F19.2°C 97% 1.0 mph NW1.6 kmh NW 3.0 mph4.8 kmh 29.93 in1013.5 mb 0.00 in0.0 mm 0.00 in/hr0.0 mm/hr 0.00 in0.0 mm
08:00 AM 68.3°F20.2°C 67.1°F19.5°C 96% 0.3 mph W0.5 kmh W 3.0 mph4.8 kmh 29.93 in1013.5 mb 0.00 in0.0 mm 0.00 in/hr0.0 mm/hr 0.00 in0.0 mm
08:15 AM 69.1°F20.6°C 67.9°F19.9°C 96% 1.1 mph SW1.8 kmh SW 2.0 mph3.2 kmh 29.93 in1013.5 mb 0.00 in0.0 mm 0.00 in/hr0.0 mm/hr 0.00 in0.0 mm
08:30 AM 69.8°F21.0°C 67.7°F19.8°C 93% 2.3 mph WNW3.7 kmh WNW 3.0 mph4.8 kmh 29.93 in1013.5 mb 0.00 in0.0 mm 0.00 in/hr0.0 mm/hr 0.00 in0.0 mm
08:45 AM 70.4°F21.3°C 67.3°F19.6°C 90% 0.6 mph NW1.0 kmh NW 4.0 mph6.4 kmh 29.93 in1013.5 mb 0.00 in0.0 mm 0.00 in/hr0.0 mm/hr 0.00 in0.0 mm
09:00 AM 72.3°F22.4°C 67.6°F19.8°C 85% 3.8 mph NW6.1 kmh NW 7.0 mph11.3 kmh 29.92 in1013.2 mb 0.00 in0.0 mm 0.00 in/hr0.0 mm/hr 0.00 in0.0 mm
09:15 AM 72.6°F22.6°C 67.5°F19.7°C 84% 1.9 mph NW3.1 kmh NW 3.0 mph4.8 kmh 29.93 in1013.5 mb 0.00 in0.0 mm 0.00 in/hr0.0 mm/hr 0.00 in0.0 mm
09:30 AM 73.1°F22.8°C 68.0°F20.0°C 84% 0.6 mph NE1.0 kmh NE 2.0 mph3.2 kmh 29.93 in1013.5 mb 0.00 in0.0 mm 0.00 in/hr0.0 mm/hr 0.00 in0.0 mm
09:45 AM 73.5°F23.1°C 68.7°F20.4°C 85% 0.6 mph N1.0 kmh N 3.0 mph4.8 kmh 29.93 in1013.5 mb 0.00 in0.0 mm 0.00 in/hr0.0 mm/hr 0.00 in0.0 mm
10:00 AM 75.6°F24.2°C 70.1°F21.2°C 83% 1.3 mph ENE2.1 kmh ENE 3.0 mph4.8 kmh 29.92 in1013.2 mb 0.00 in0.0 mm 0.00 in/hr0.0 mm/hr 0.00 in0.0 mm
10:15 AM 76.9°F24.9°C 70.6°F21.4°C 81% 1.7 mph NE2.7 kmh NE 3.0 mph4.8 kmh 29.92 in1013.2 mb 0.00 in0.0 mm 0.00 in/hr0.0 mm/hr 0.00 in0.0 mm
10:30 AM 77.3°F25.2°C 70.6°F21.4°C 80% 1.1 mph ENE1.8 kmh ENE 8.0 mph12.9 kmh 29.93 in1013.5 mb 0.00 in0.0 mm 0.00 in/hr0.0 mm/hr 0.00 in0.0 mm
10:45 AM 78.1°F25.6°C 70.7°F21.5°C 78% 2.2 mph ENE3.5 kmh ENE 3.0 mph4.8 kmh 29.93 in1013.5 mb 0.00 in0.0 mm 0.00 in/hr0.0 mm/hr 0.00 in0.0 mm
11:00 AM 78.5°F25.8°C 70.7°F21.5°C 77% 3.0 mph ENE4.8 kmh ENE 4.0 mph6.4 kmh 29.93 in1013.5 mb 0.00 in0.0 mm 0.00 in/hr0.0 mm/hr 0.00 in0.0 mm
11:15 AM 78.7°F25.9°C 70.5°F21.4°C 76% 4.5 mph NE7.2 kmh NE 6.0 mph9.7 kmh 29.92 in1013.2 mb 0.00 in0.0 mm 0.00 in/hr0.0 mm/hr 0.00 in0.0 mm
11:30 AM 79.4°F26.3°C 70.4°F21.3°C 74% 4.3 mph NNE6.9 kmh NNE 6.0 mph9.7 kmh 29.91 in1012.9 mb 0.00 in0.0 mm 0.00 in/hr0.0 mm/hr 0.00 in0.0 mm
11:45 AM 79.0°F26.1°C 70.0°F21.1°C 74% 4.0 mph ENE6.4 kmh ENE 6.0 mph9.7 kmh 29.90 in1012.5 mb 0.00 in0.0 mm 0.00 in/hr0.0 mm/hr 0.00 in0.0 mm
12:45 PM 74.9°F23.8°C 68.7°F20.4°C 81% 4.7 mph E7.6 kmh E 11.0 mph17.7 kmh 29.88 in1011.9 mb 0.00 in0.0 mm 0.00 in/hr0.0 mm/hr 0.00 in0.0 mm
01:00 PM 72.5°F22.5°C 69.4°F20.8°C 90% 5.7 mph ENE9.2 kmh ENE 7.0 mph11.3 kmh 29.87 in1011.5 mb 0.09 in2.3 mm 0.12 in/hr3.0 mm/hr 0.09 in2.3 mm
01:15 PM 72.5°F22.5°C 70.3°F21.3°C 93% 2.9 mph ENE4.7 kmh ENE 7.0 mph11.3 kmh 29.86 in1011.2 mb 0.01 in0.3 mm 0.04 in/hr1.0 mm/hr 0.10 in2.5 mm
01:30 PM 72.7°F22.6°C 70.5°F21.4°C 93% 2.0 mph E3.2 kmh E 3.0 mph4.8 kmh 29.86 in1011.2 mb 0.00 in0.0 mm 0.00 in/hr0.0 mm/hr 0.10 in2.5 mm
01:45 PM 72.7°F22.6°C 70.9°F21.6°C 94% 0.4 mph E0.6 kmh E -- 29.86 in1011.2 mb 0.00 in0.0 mm 0.00 in/hr0.0 mm/hr 0.10 in2.5 mm
02:00 PM 72.6°F22.6°C 70.8°F21.6°C 94% 0.1 mph SW0.2 kmh SW 1.0 mph1.6 kmh 29.88 in1011.9 mb 0.01 in0.3 mm 0.01 in/hr0.3 mm/hr 0.11 in2.8 mm
02:15 PM 71.8°F22.1°C 69.7°F20.9°C 93% Calm Calm -- 29.90 in1012.5 mb 0.13 in3.3 mm 0.52 in/hr13.2 mm/hr 0.24 in6.1 mm
02:30 PM 71.0°F21.7°C 69.2°F20.7°C 94% Calm Calm -- 29.88 in1011.9 mb 0.09 in2.3 mm 0.36 in/hr9.1 mm/hr 0.32 in8.1 mm
02:45 PM 70.7°F21.5°C 68.9°F20.5°C 94% 1.5 mph NW2.4 kmh NW 3.0 mph4.8 kmh 29.90 in1012.5 mb 0.00 in0.0 mm 0.00 in/hr0.0 mm/hr 0.32 in8.1 mm
03:00 PM 70.2°F21.2°C 68.4°F20.2°C 94% 1.3 mph NW2.1 kmh NW 2.0 mph3.2 kmh 29.89 in1012.2 mb 0.00 in0.0 mm 0.00 in/hr0.0 mm/hr 0.32 in8.1 mm
03:15 PM 69.6°F20.9°C 68.1°F20.1°C 95% 4.5 mph NNW7.2 kmh NNW 10.0 mph16.1 kmh 29.90 in1012.5 mb 0.00 in0.0 mm 0.00 in/hr0.0 mm/hr 0.32 in8.1 mm
03:30 PM 67.9°F19.9°C 66.1°F18.9°C 94% 9.0 mph WNW14.5 kmh WNW 14.0 mph22.5 kmh 29.91 in1012.9 mb 0.05 in1.3 mm 0.20 in/hr5.1 mm/hr 0.37 in9.4 mm
03:45 PM 65.7°F18.7°C 64.2°F17.9°C 95% 2.3 mph W3.7 kmh W 5.0 mph8.0 kmh 29.92 in1013.2 mb 0.31 in7.9 mm 1.24 in/hr31.5 mm/hr 0.66 in16.8 mm
04:00 PM 65.6°F18.7°C 64.4°F18.0°C 96% 2.3 mph WSW3.7 kmh WSW 3.0 mph4.8 kmh 29.92 in1013.2 mb 0.06 in1.5 mm 0.08 in/hr2.0 mm/hr 0.71 in18.0 mm
04:15 PM 65.1°F18.4°C 64.0°F17.8°C 96% 7.3 mph NNW11.7 kmh NNW 12.0 mph19.3 kmh 29.92 in1013.2 mb 0.04 in1.0 mm 0.16 in/hr4.1 mm/hr 0.74 in18.8 mm
04:30 PM 64.6°F18.1°C 63.4°F17.4°C 96% 3.8 mph NW6.1 kmh NW 5.0 mph8.0 kmh 29.91 in1012.9 mb 0.01 in0.3 mm 0.04 in/hr1.0 mm/hr 0.75 in19.1 mm
04:45 PM 64.3°F17.9°C 63.1°F17.3°C 96% 1.7 mph WSW2.7 kmh WSW 3.0 mph4.8 kmh 29.92 in1013.2 mb 0.00 in0.0 mm 0.00 in/hr0.0 mm/hr 0.75 in19.1 mm
05:00 PM 64.4°F18.0°C 63.5°F17.5°C 97% 1.7 mph NE2.7 kmh NE 4.0 mph6.4 kmh 29.92 in1013.2 mb 0.00 in0.0 mm 0.00 in/hr0.0 mm/hr 0.75 in19.1 mm
05:15 PM 64.4°F18.0°C 63.2°F17.3°C 96% 2.6 mph NW4.2 kmh NW 5.0 mph8.0 kmh 29.91 in1012.9 mb 0.00 in0.0 mm 0.00 in/hr0.0 mm/hr 0.75 in19.1 mm
05:30 PM 64.3°F17.9°C 63.4°F17.4°C 97% 2.9 mph NNW4.7 kmh NNW 4.0 mph6.4 kmh 29.90 in1012.5 mb 0.00 in0.0 mm 0.00 in/hr0.0 mm/hr 0.75 in19.1 mm
05:45 PM 64.4°F18.0°C 63.5°F17.5°C 97% 0.6 mph NW1.0 kmh NW 4.0 mph6.4 kmh 29.90 in1012.5 mb 0.00 in0.0 mm 0.00 in/hr0.0 mm/hr 0.75 in19.1 mm
06:00 PM 64.5°F18.1°C 63.7°F17.6°C 97% 0.1 mph NW0.2 kmh NW 1.0 mph1.6 kmh 29.89 in1012.2 mb 0.00 in0.0 mm 0.00 in/hr0.0 mm/hr 0.75 in19.1 mm
06:15 PM 64.7°F18.2°C 63.8°F17.7°C 97% 1.4 mph NW2.3 kmh NW 4.0 mph6.4 kmh 29.89 in1012.2 mb 0.00 in0.0 mm 0.00 in/hr0.0 mm/hr 0.75 in19.1 mm
06:30 PM 64.7°F18.2°C 63.8°F17.7°C 97% Calm Calm -- 29.89 in1012.2 mb 0.00 in0.0 mm 0.00 in/hr0.0 mm/hr 0.75 in19.1 mm
06:45 PM 64.7°F18.2°C 63.8°F17.7°C 97% 0.5 mph N0.8 kmh N 3.0 mph4.8 kmh 29.90 in1012.5 mb 0.00 in0.0 mm 0.00 in/hr0.0 mm/hr 0.75 in19.1 mm
07:00 PM 64.6°F18.1°C 63.7°F17.6°C 97% 2.4 mph N3.9 kmh N 4.0 mph6.4 kmh 29.91 in1012.9 mb 0.00 in0.0 mm 0.00 in/hr0.0 mm/hr 0.75 in19.1 mm
07:15 PM 64.5°F18.1°C 63.6°F17.6°C 97% 3.1 mph N5.0 kmh N 5.0 mph8.0 kmh 29.91 in1012.9 mb 0.00 in0.0 mm 0.00 in/hr0.0 mm/hr 0.75 in19.1 mm
07:30 PM 64.5°F18.1°C 63.6°F17.6°C 97% 2.4 mph NNE3.9 kmh NNE 4.0 mph6.4 kmh 29.91 in1012.9 mb 0.00 in0.0 mm 0.00 in/hr0.0 mm/hr 0.75 in19.1 mm
07:45 PM 64.7°F18.2°C 63.8°F17.7°C 97% 2.5 mph NE4.0 kmh NE 6.0 mph9.7 kmh 29.92 in1013.2 mb 0.00 in0.0 mm 0.00 in/hr0.0 mm/hr 0.75 in19.1 mm
08:00 PM 64.8°F18.2°C 63.9°F17.7°C 97% 1.2 mph NNE1.9 kmh NNE 6.0 mph9.7 kmh 29.91 in1012.9 mb 0.00 in0.0 mm 0.00 in/hr0.0 mm/hr 0.75 in19.1 mm
08:15 PM 64.8°F18.2°C 63.9°F17.7°C 97% 0.1 mph NNE0.2 kmh NNE -- 29.92 in1013.2 mb 0.00 in0.0 mm 0.00 in/hr0.0 mm/hr 0.75 in19.1 mm
08:30 PM 64.9°F18.3°C 64.0°F17.8°C 97% Calm Calm -- 29.92 in1013.2 mb 0.00 in0.0 mm 0.00 in/hr0.0 mm/hr 0.75 in19.1 mm
08:45 PM 65.1°F18.4°C 64.2°F17.9°C 97% 3.0 mph ENE4.8 kmh ENE 4.0 mph6.4 kmh 29.93 in1013.5 mb 0.00 in0.0 mm 0.00 in/hr0.0 mm/hr 0.75 in19.1 mm
09:00 PM 65.4°F18.6°C 64.5°F18.1°C 97% 3.7 mph NE6.0 kmh NE 4.0 mph6.4 kmh 29.93 in1013.5 mb 0.00 in0.0 mm 0.00 in/hr0.0 mm/hr 0.75 in19.1 mm
09:15 PM 65.7°F18.7°C 64.8°F18.2°C 97% 3.9 mph ENE6.3 kmh ENE 5.0 mph8.0 kmh 29.93 in1013.5 mb 0.00 in0.0 mm 0.00 in/hr0.0 mm/hr 0.75 in19.1 mm
09:30 PM 65.9°F18.8°C 65.0°F18.3°C 97% 2.7 mph NE4.3 kmh NE 5.0 mph8.0 kmh 29.94 in1013.9 mb 0.00 in0.0 mm 0.00 in/hr0.0 mm/hr 0.75 in19.1 mm
09:45 PM 66.1°F18.9°C 65.2°F18.4°C 97% 4.5 mph ENE7.2 kmh ENE 6.0 mph9.7 kmh 29.94 in1013.9 mb 0.00 in0.0 mm 0.00 in/hr0.0 mm/hr 0.75 in19.1 mm
10:00 PM 66.1°F18.9°C 65.2°F18.4°C 97% 2.2 mph NE3.5 kmh NE 4.0 mph6.4 kmh 29.94 in1013.9 mb 0.00 in0.0 mm 0.00 in/hr0.0 mm/hr 0.75 in19.1 mm
10:15 PM 66.2°F19.0°C 65.3°F18.5°C 97% 1.2 mph NE1.9 kmh NE 3.0 mph4.8 kmh 29.95 in1014.2 mb 0.00 in0.0 mm 0.00 in/hr0.0 mm/hr 0.75 in19.1 mm
10:30 PM 66.2°F19.0°C 65.0°F18.3°C 96% 2.8 mph ENE4.5 kmh ENE 5.0 mph8.0 kmh 29.94 in1013.9 mb 0.00 in0.0 mm 0.00 in/hr0.0 mm/hr 0.75 in19.1 mm
10:45 PM 66.3°F19.1°C 65.1°F18.4°C 96% 2.6 mph E4.2 kmh E 5.0 mph8.0 kmh 29.94 in1013.9 mb 0.00 in0.0 mm 0.00 in/hr0.0 mm/hr 0.75 in19.1 mm
11:00 PM 66.3°F19.1°C 65.1°F18.4°C 96% 3.1 mph NE5.0 kmh NE 9.0 mph14.5 kmh 29.94 in1013.9 mb 0.00 in0.0 mm 0.00 in/hr0.0 mm/hr 0.80 in20.3 mm
11:15 PM 66.3°F19.1°C 65.2°F18.4°C 96% 3.9 mph ENE6.3 kmh ENE 4.0 mph6.4 kmh 29.94 in1013.9 mb 0.00 in0.0 mm 0.00 in/hr0.0 mm/hr 0.80 in20.3 mm
11:30 PM 66.4°F19.1°C 65.2°F18.4°C 96% 0.7 mph NE1.1 kmh NE 2.0 mph3.2 kmh 29.94 in1013.9 mb 0.00 in0.0 mm 0.00 in/hr0.0 mm/hr 0.80 in20.3 mm
11:45 PM 66.4°F19.1°C 65.2°F18.4°C 96% 2.1 mph ENE3.4 kmh ENE 6.0 mph9.7 kmh 29.93 in1013.5 mb 0.00 in0.0 mm 0.00 in/hr0.0 mm/hr 0.80 in20.3 mm